Rostov, Russia
Current Conditions -  °F | °C
As of 8:00 PM on Sunday 23 Nov 2014 (Local Time) from UUDL Reporting Station
Overcast Overcast  
Wind Chill: 27°   Ceiling: 1200
Heat Index: 27°   Visibility: 6mi
Dew Point: 23°   Wind: 2mph
Humidity: 86%   Direction: 90°E
Pressure: 30.59"   Gusts: NA
Location:  57.19°N, 39.4°E
Report Text: UUDL 231700Z 09001MPS 9999 OVC012 M03/M05 Q1036 NOSIG RMKQFE769 23000060
Loading
Personal Weather Stations






























Interactive Weather Map New forecast layout! Learn more

10-Day Weather Forecast

Advertisements
Track Severe Weather on mobile